createdAt,value
2019-03-19T00:01:02.596Z,89.97
2019-03-19T00:04:09.339Z,90.14
2019-03-19T00:07:16.869Z,89.98
2019-03-19T00:10:23.641Z,89.47
2019-03-19T00:13:31.583Z,89.84
2019-03-19T00:16:39.016Z,90.19
2019-03-19T00:19:45.523Z,89.92
2019-03-19T00:22:52.156Z,90.08
2019-03-19T00:25:59.882Z,90.68
2019-03-19T00:29:06.363Z,90.90
2019-03-19T00:32:12.766Z,90.42
2019-03-19T00:35:19.015Z,90.17
2019-03-19T00:38:25.510Z,90.41
2019-03-19T00:41:32.235Z,90.47
2019-03-19T00:44:39.149Z,90.41
2019-03-19T00:47:45.838Z,90.34
2019-03-19T00:50:52.458Z,90.48
2019-03-19T00:53:59.173Z,90.59
2019-03-19T00:57:05.893Z,90.48
2019-03-19T01:00:12.915Z,90.97
2019-03-19T01:03:19.341Z,91.19
2019-03-19T01:06:25.765Z,91.50
2019-03-19T01:09:33.069Z,90.99
2019-03-19T01:12:39.981Z,90.24
2019-03-19T01:15:46.442Z,90.19
2019-03-19T01:18:53.067Z,89.79
2019-03-19T01:21:59.678Z,90.43
2019-03-19T01:25:07.231Z,90.67
2019-03-19T01:28:13.723Z,90.72
2019-03-19T01:31:21.139Z,90.60
2019-03-19T01:34:27.500Z,90.85
2019-03-19T01:37:33.838Z,91.09
2019-03-19T01:40:40.270Z,90.54
2019-03-19T01:43:46.686Z,89.96
2019-03-19T01:46:53.244Z,90.89
2019-03-19T01:50:00.337Z,90.63
2019-03-19T01:53:06.702Z,90.96
2019-03-19T01:56:13.871Z,91.15
2019-03-19T01:59:20.363Z,91.44
2019-03-19T02:02:26.853Z,91.30
2019-03-19T02:05:33.409Z,90.77
2019-03-19T02:08:40.062Z,90.75
2019-03-19T02:11:46.667Z,90.95
2019-03-19T02:14:53.073Z,91.33
2019-03-19T02:17:59.677Z,91.50
2019-03-19T02:21:06.385Z,91.28
2019-03-19T02:24:13.173Z,91.54
2019-03-19T02:27:19.647Z,91.10
2019-03-19T02:30:26.272Z,91.04
2019-03-19T02:33:33.036Z,91.17
2019-03-19T02:36:39.245Z,91.29
2019-03-19T02:39:45.841Z,91.09
2019-03-19T02:42:52.464Z,90.55
2019-03-19T02:45:59.380Z,91.14
2019-03-19T02:49:06.122Z,91.11
2019-03-19T02:52:12.770Z,91.75
2019-03-19T02:55:19.277Z,91.74
2019-03-19T02:58:26.234Z,91.76
2019-03-19T03:01:32.977Z,91.71
2019-03-19T03:04:39.683Z,91.27
2019-03-19T03:07:46.110Z,91.16
2019-03-19T03:10:52.371Z,91.49
2019-03-19T03:13:58.841Z,91.61
2019-03-19T03:17:05.542Z,92.02
2019-03-19T03:20:12.434Z,92.00
2019-03-19T03:23:19.474Z,92.20
2019-03-19T03:26:25.653Z,91.79
2019-03-19T03:29:32.243Z,91.15
2019-03-19T03:32:38.518Z,91.31
2019-03-19T03:35:44.954Z,91.38
2019-03-19T03:38:51.530Z,91.49
2019-03-19T03:41:57.984Z,91.76
2019-03-19T03:45:04.666Z,91.88
2019-03-19T03:48:11.201Z,91.55
2019-03-19T03:51:18.238Z,91.46
2019-03-19T03:54:24.877Z,91.71
2019-03-19T03:57:31.580Z,92.04
2019-03-19T04:00:38.535Z,92.15
2019-03-19T04:03:45.520Z,92.08
2019-03-19T04:06:52.540Z,91.68
2019-03-19T04:09:59.029Z,91.76
2019-03-19T04:13:05.979Z,91.51
2019-03-19T04:16:12.574Z,92.26
2019-03-19T04:19:19.321Z,92.20
2019-03-19T04:22:26.003Z,92.01
2019-03-19T04:25:32.663Z,91.78
2019-03-19T04:28:39.531Z,91.52
2019-03-19T04:31:45.975Z,91.10
2019-03-19T04:34:52.629Z,91.04
2019-03-19T04:37:59.095Z,90.33
2019-03-19T04:41:06.102Z,90.46
2019-03-19T04:44:12.841Z,91.01
2019-03-19T04:47:20.537Z,91.27
2019-03-19T04:50:27.552Z,91.52
2019-03-19T04:53:33.919Z,91.86
2019-03-19T04:56:40.359Z,91.11
2019-03-19T04:59:47.251Z,90.41
2019-03-19T05:02:53.737Z,91.11
2019-03-19T05:06:00.553Z,91.64
2019-03-19T05:09:08.312Z,91.53
2019-03-19T05:12:15.161Z,91.36
2019-03-19T05:15:22.109Z,91.60
2019-03-19T05:18:31.281Z,91.92
2019-03-19T05:21:37.943Z,92.01
2019-03-19T05:24:45.142Z,92.03
2019-03-19T05:27:51.766Z,91.77
2019-03-19T05:30:59.018Z,91.24
2019-03-19T05:34:06.178Z,91.07
2019-03-19T05:37:12.802Z,91.42
2019-03-19T05:40:20.015Z,91.41
2019-03-19T05:43:27.319Z,91.21
2019-03-19T05:46:34.459Z,91.50
2019-03-19T05:49:40.983Z,91.28
2019-03-19T05:52:48.714Z,90.94
2019-03-19T05:55:55.576Z,90.86
2019-03-19T05:59:02.690Z,90.30
2019-03-19T06:02:09.244Z,89.84
2019-03-19T06:05:15.685Z,89.68
2019-03-19T06:08:22.144Z,90.05
2019-03-19T06:11:28.571Z,90.40
2019-03-19T06:14:38.466Z,90.54
2019-03-19T06:17:45.010Z,89.94
2019-03-19T06:20:51.629Z,89.98
2019-03-19T06:23:57.785Z,89.79
2019-03-19T06:27:03.977Z,89.21
2019-03-19T06:30:13.238Z,88.99
2019-03-19T06:33:19.738Z,89.67
2019-03-19T06:36:26.681Z,90.19
2019-03-19T06:39:33.227Z,89.88
2019-03-19T06:42:42.663Z,89.23
2019-03-19T06:45:50.052Z,89.33
2019-03-19T06:48:56.803Z,89.12
2019-03-19T06:52:03.432Z,88.97
2019-03-19T06:55:11.412Z,86.66
2019-03-19T06:58:17.994Z,84.28
2019-03-19T07:01:24.838Z,81.56
2019-03-19T07:04:31.747Z,81.30
2019-03-19T07:07:38.462Z,79.99
2019-03-19T07:10:45.042Z,78.67
2019-03-19T07:13:52.173Z,77.28
2019-03-19T07:16:58.763Z,75.60
2019-03-19T07:20:05.798Z,74.05
2019-03-19T07:23:12.085Z,73.75
2019-03-19T07:26:18.648Z,72.01
2019-03-19T07:29:25.275Z,70.05
2019-03-19T07:32:31.772Z,69.26
2019-03-19T07:35:38.252Z,68.02
2019-03-19T07:38:44.586Z,70.27
2019-03-19T07:41:51.852Z,69.78
2019-03-19T07:44:59.033Z,67.11
2019-03-19T07:48:05.735Z,67.04
2019-03-19T07:51:12.540Z,66.63
2019-03-19T07:54:19.629Z,65.33
2019-03-19T07:57:26.029Z,65.59
2019-03-19T08:00:32.455Z,64.74
2019-03-19T08:03:39.184Z,64.08
2019-03-19T08:06:46.049Z,62.24
2019-03-19T08:09:52.606Z,62.36
2019-03-19T08:12:59.567Z,64.13
2019-03-19T08:16:06.139Z,62.22
2019-03-19T08:19:13.181Z,62.35
2019-03-19T08:22:19.741Z,63.46
2019-03-19T08:25:27.112Z,62.60
2019-03-19T08:28:33.916Z,64.16
2019-03-19T08:31:40.629Z,62.87
2019-03-19T08:34:47.376Z,63.61
2019-03-19T08:37:54.065Z,61.29
2019-03-19T08:41:02.275Z,61.51
2019-03-19T08:44:09.210Z,61.31
2019-03-19T08:47:15.951Z,60.14
2019-03-19T08:50:22.368Z,60.47
2019-03-19T08:53:28.933Z,59.51
2019-03-19T08:56:35.990Z,58.66
2019-03-19T08:59:42.848Z,58.40
2019-03-19T09:02:52.434Z,59.37
2019-03-19T09:05:59.341Z,60.38
2019-03-19T09:09:08.837Z,64.28
2019-03-19T09:12:15.384Z,66.06
2019-03-19T09:15:21.880Z,66.44
2019-03-19T09:18:28.485Z,65.53
2019-03-19T09:21:35.653Z,65.94
2019-03-19T09:24:42.419Z,65.53
2019-03-19T09:27:49.239Z,62.76
2019-03-19T09:30:56.013Z,63.08
2019-03-19T09:34:03.009Z,61.03
2019-03-19T09:37:09.627Z,61.27
2019-03-19T09:40:16.280Z,59.66
2019-03-19T09:43:22.805Z,62.33
2019-03-19T09:46:30.567Z,60.61
2019-03-19T09:49:37.186Z,57.92
2019-03-19T09:52:43.769Z,57.70
2019-03-19T09:55:50.439Z,61.20
2019-03-19T09:58:56.760Z,60.06
2019-03-19T10:02:03.444Z,61.32
2019-03-19T10:05:09.829Z,59.32
2019-03-19T10:08:16.538Z,57.86
2019-03-19T10:11:23.087Z,55.34
2019-03-19T10:14:30.049Z,56.83
2019-03-19T10:17:36.510Z,55.43
2019-03-19T10:20:43.230Z,55.91
2019-03-19T10:23:49.500Z,53.77
2019-03-19T10:26:55.982Z,57.65
2019-03-19T10:30:02.416Z,61.06
2019-03-19T10:33:11.288Z,60.63
2019-03-19T10:36:18.551Z,60.80
2019-03-19T10:39:24.881Z,57.17
2019-03-19T10:42:31.259Z,52.82
2019-03-19T10:45:39.828Z,54.56
2019-03-19T10:48:46.286Z,55.08
2019-03-19T10:51:52.707Z,55.55
2019-03-19T10:54:59.234Z,53.18
2019-03-19T10:58:10.846Z,55.19
2019-03-19T11:01:14.495Z,57.34
2019-03-19T11:04:20.988Z,52.02
2019-03-19T11:07:27.581Z,56.35
2019-03-19T11:10:33.911Z,52.95
2019-03-19T11:13:40.767Z,50.11
2019-03-19T11:16:47.480Z,51.03
2019-03-19T11:19:53.797Z,51.08
2019-03-19T11:23:00.707Z,49.70
2019-03-19T11:26:07.654Z,48.35
2019-03-19T11:29:13.851Z,49.89
2019-03-19T11:32:20.554Z,51.70
2019-03-19T11:35:27.461Z,51.28
2019-03-19T11:38:34.204Z,49.64
2019-03-19T11:41:41.225Z,50.54
2019-03-19T11:44:48.338Z,50.85
2019-03-19T11:47:54.874Z,50.27
2019-03-19T11:51:01.575Z,50.17
2019-03-19T11:54:08.399Z,48.14
2019-03-19T11:57:15.061Z,52.78
2019-03-19T12:00:41.811Z,50.27
2019-03-19T12:03:48.338Z,54.39
2019-03-19T12:06:55.310Z,54.16
2019-03-19T12:10:03.234Z,54.27
2019-03-19T12:13:10.338Z,52.59
2019-03-19T12:16:16.978Z,53.01
2019-03-19T12:19:23.437Z,52.66
2019-03-19T12:22:33.169Z,50.21
2019-03-19T12:25:39.629Z,49.89
2019-03-19T12:28:46.463Z,49.67
2019-03-19T12:31:53.384Z,49.60
2019-03-19T12:35:01.579Z,51.57
2019-03-19T12:38:09.115Z,49.86
2019-03-19T12:41:16.204Z,49.49
2019-03-19T12:44:22.892Z,51.49
2019-03-19T12:47:30.230Z,51.19
2019-03-19T12:50:36.952Z,50.44
2019-03-19T12:53:43.697Z,48.27
2019-03-19T12:56:50.739Z,48.46
2019-03-19T12:59:57.739Z,52.50
2019-03-19T13:03:04.537Z,52.30
2019-03-19T13:06:11.377Z,51.45
2019-03-19T13:09:18.186Z,51.20
2019-03-19T13:12:25.084Z,48.15
2019-03-19T13:15:31.973Z,48.77
2019-03-19T13:18:38.909Z,48.55
2019-03-19T13:21:45.298Z,46.61
2019-03-19T13:24:51.995Z,47.63
2019-03-19T13:27:58.449Z,46.87
2019-03-19T13:31:05.045Z,47.85
2019-03-19T13:34:11.590Z,47.67
2019-03-19T13:37:17.998Z,47.77
2019-03-19T13:40:24.982Z,48.28
2019-03-19T13:43:32.045Z,48.25
2019-03-19T13:46:41.128Z,48.36
2019-03-19T13:49:48.061Z,49.13
2019-03-19T13:52:55.042Z,49.80
2019-03-19T13:56:01.555Z,49.78
2019-03-19T13:59:08.092Z,51.48
2019-03-19T14:02:14.618Z,47.53
2019-03-19T14:05:21.371Z,48.66
2019-03-19T14:08:28.425Z,50.80
2019-03-19T14:11:35.900Z,49.63
2019-03-19T14:14:42.343Z,47.45
2019-03-19T14:17:48.932Z,48.45
2019-03-19T14:20:56.494Z,47.80
2019-03-19T14:24:03.476Z,46.52
2019-03-19T14:27:10.302Z,46.44
2019-03-19T14:30:17.494Z,44.97
2019-03-19T14:33:24.354Z,44.70
2019-03-19T14:36:31.039Z,47.59
2019-03-19T14:39:37.900Z,47.44
2019-03-19T14:42:44.562Z,48.29
2019-03-19T14:45:51.121Z,48.10
2019-03-19T14:48:58.336Z,46.97
2019-03-19T14:52:05.129Z,45.79
2019-03-19T14:55:12.510Z,47.53
2019-03-19T14:58:18.885Z,46.87
2019-03-19T15:01:26.314Z,47.53
2019-03-19T15:04:33.439Z,46.39
2019-03-19T15:07:40.535Z,47.49
2019-03-19T15:10:48.265Z,46.23
2019-03-19T15:13:55.342Z,47.71
2019-03-19T15:17:05.062Z,46.90
2019-03-19T15:20:12.722Z,47.23
2019-03-19T15:23:20.520Z,45.83
2019-03-19T15:26:27.527Z,47.93
2019-03-19T15:29:35.066Z,47.25
2019-03-19T15:32:42.339Z,45.84
2019-03-19T15:35:49.729Z,42.13
2019-03-19T15:38:56.510Z,42.67
2019-03-19T15:42:03.272Z,43.94
2019-03-19T15:45:10.828Z,44.58
2019-03-19T15:48:18.822Z,45.02
2019-03-19T15:51:25.559Z,45.28
2019-03-19T15:54:35.619Z,44.40
2019-03-19T15:57:42.449Z,44.31
2019-03-19T16:00:49.556Z,46.25
2019-03-19T16:03:56.069Z,44.54
2019-03-19T16:07:02.628Z,48.75
2019-03-19T16:10:09.740Z,47.05
2019-03-19T16:13:16.510Z,47.56
2019-03-19T16:16:23.162Z,47.77
2019-03-19T16:19:31.314Z,49.45
2019-03-19T16:22:38.200Z,51.01
2019-03-19T16:25:45.914Z,51.42
2019-03-19T16:28:52.564Z,51.44
2019-03-19T16:31:58.833Z,49.70
2019-03-19T16:35:05.880Z,48.95
2019-03-19T16:38:12.247Z,49.53
2019-03-19T16:41:18.830Z,50.37
2019-03-19T16:44:25.249Z,49.50
2019-03-19T16:47:32.128Z,48.74
2019-03-19T16:50:39.051Z,49.23
2019-03-19T16:53:45.529Z,49.80
2019-03-19T16:56:52.840Z,49.08
2019-03-19T16:59:59.565Z,50.31
2019-03-19T17:03:06.315Z,50.48
2019-03-19T17:06:12.719Z,50.37
2019-03-19T17:09:19.695Z,51.29
2019-03-19T17:12:26.618Z,51.96
2019-03-19T17:15:33.469Z,52.06
2019-03-19T17:18:40.594Z,52.69
2019-03-19T17:21:50.610Z,55.46
2019-03-19T17:25:00.303Z,57.20
2019-03-19T17:28:10.749Z,60.26
2019-03-19T17:31:17.985Z,61.42
2019-03-19T17:34:27.340Z,61.84
2019-03-19T17:37:36.581Z,62.59
2019-03-19T17:40:46.845Z,63.29
2019-03-19T17:43:53.682Z,67.26
2019-03-19T17:47:02.930Z,67.96
2019-03-19T17:50:12.329Z,67.80
2019-03-19T17:53:19.084Z,69.49
2019-03-19T17:56:26.249Z,69.58
2019-03-19T17:59:35.423Z,71.96
2019-03-19T18:02:42.734Z,71.76
2019-03-19T18:05:49.461Z,72.19
2019-03-19T18:08:57.419Z,74.36
2019-03-19T18:12:04.045Z,71.96
2019-03-19T18:15:15.730Z,73.12
2019-03-19T18:18:23.889Z,73.76
2019-03-19T18:21:32.967Z,73.21
2019-03-19T18:24:40.149Z,73.55
2019-03-19T18:27:49.149Z,75.35
2019-03-19T18:30:57.221Z,75.90
2019-03-19T18:34:10.262Z,76.35
2019-03-19T18:37:12.760Z,76.76
2019-03-19T18:40:20.586Z,76.62
2019-03-19T18:43:27.978Z,75.78
2019-03-19T18:46:35.866Z,74.66
2019-03-19T18:49:43.067Z,74.84
2019-03-19T18:52:50.064Z,76.17
2019-03-19T18:55:57.180Z,75.81
2019-03-19T18:59:03.760Z,75.76
2019-03-19T19:02:10.546Z,76.18
2019-03-19T19:05:17.352Z,76.19
2019-03-19T19:08:24.596Z,76.84
2019-03-19T19:11:31.674Z,76.05
2019-03-19T19:14:41.870Z,76.33
2019-03-19T19:17:52.225Z,76.23
2019-03-19T19:20:59.749Z,77.68
2019-03-19T19:24:08.790Z,77.47
2019-03-19T19:27:16.162Z,77.82
2019-03-19T19:30:24.293Z,77.47
2019-03-19T19:33:30.954Z,76.70
2019-03-19T19:36:38.276Z,76.59
2019-03-19T19:39:45.075Z,77.19
2019-03-19T19:42:51.577Z,77.60
2019-03-19T19:45:59.099Z,76.53
2019-03-19T19:49:06.385Z,77.20
2019-03-19T19:52:13.502Z,76.58
2019-03-19T19:55:20.888Z,77.16
2019-03-19T19:58:29.625Z,77.53
2019-03-19T20:01:38.979Z,77.44
2019-03-19T20:04:45.793Z,77.38
2019-03-19T20:07:53.287Z,77.95
2019-03-19T20:11:00.138Z,78.36
2019-03-19T20:14:07.392Z,78.71
2019-03-19T20:17:14.646Z,78.90
2019-03-19T20:20:21.619Z,78.61
2019-03-19T20:23:28.396Z,80.60
2019-03-19T20:26:36.049Z,79.96
2019-03-19T20:29:42.646Z,79.97
2019-03-19T20:32:49.113Z,80.44
2019-03-19T20:35:56.789Z,81.46
2019-03-19T20:39:04.178Z,81.97
2019-03-19T20:42:11.416Z,82.35
2019-03-19T20:45:18.907Z,81.66
2019-03-19T20:48:25.931Z,83.23
2019-03-19T20:51:34.315Z,83.02
2019-03-19T20:54:40.808Z,83.98
2019-03-19T20:57:47.546Z,83.09
2019-03-19T21:00:54.372Z,83.39
2019-03-19T21:04:01.369Z,83.81
2019-03-19T21:07:07.695Z,83.67
2019-03-19T21:10:16.365Z,83.98
2019-03-19T21:13:23.686Z,84.31
2019-03-19T21:16:30.273Z,82.63
2019-03-19T21:19:37.542Z,84.80
2019-03-19T21:22:44.049Z,84.57
2019-03-19T21:25:50.779Z,84.17
2019-03-19T21:28:58.345Z,84.86
2019-03-19T21:32:04.907Z,84.21
2019-03-19T21:35:11.687Z,84.91
2019-03-19T21:38:18.830Z,85.98
2019-03-19T21:41:25.516Z,84.72
2019-03-19T21:44:32.357Z,85.24
2019-03-19T21:47:38.766Z,83.79
2019-03-19T21:50:45.954Z,84.68
2019-03-19T21:53:52.489Z,84.13
2019-03-19T21:56:59.409Z,85.24
2019-03-19T22:00:09.813Z,83.67
2019-03-19T22:03:16.021Z,84.13
2019-03-19T22:06:22.527Z,84.33
2019-03-19T22:09:30.697Z,84.81
2019-03-19T22:12:40.586Z,84.62
2019-03-19T22:15:46.916Z,84.59
2019-03-19T22:18:53.974Z,84.66
2019-03-19T22:22:00.752Z,84.71
2019-03-19T22:25:08.023Z,85.02
2019-03-19T22:28:14.742Z,85.15
2019-03-19T22:31:21.674Z,83.69
2019-03-19T22:34:28.063Z,85.01
2019-03-19T22:37:34.700Z,85.36
2019-03-19T22:40:41.827Z,85.19
2019-03-19T22:43:48.699Z,83.66
2019-03-19T22:46:55.183Z,85.08
2019-03-19T22:50:02.139Z,85.88
2019-03-19T22:53:09.154Z,86.10
2019-03-19T22:56:15.674Z,86.25
2019-03-19T22:59:22.519Z,86.65
2019-03-19T23:02:29.287Z,86.21
2019-03-19T23:05:36.151Z,86.95
2019-03-19T23:08:42.819Z,86.15
2019-03-19T23:11:49.529Z,86.60
2019-03-19T23:14:56.407Z,86.53
2019-03-19T23:18:03.098Z,86.56
2019-03-19T23:21:10.029Z,86.66
2019-03-19T23:24:16.547Z,86.83
2019-03-19T23:27:23.554Z,87.27
2019-03-19T23:30:30.197Z,86.54
2019-03-19T23:33:36.652Z,87.04
2019-03-19T23:36:42.897Z,86.13
2019-03-19T23:39:49.267Z,87.05
2019-03-19T23:42:55.606Z,87.51
2019-03-19T23:46:01.795Z,87.11
2019-03-19T23:49:09.866Z,86.94
2019-03-19T23:52:16.353Z,86.63
2019-03-19T23:55:22.718Z,87.02
2019-03-19T23:58:28.945Z,86.94
